Aérodrome :
LOGIN :

S'inscrire | Disclaimer

   EN    FR    IT 

 










Légende :    VFR   VFR Marginal   IFR   IFR Intensif   IFR Très Intensif
Visi : 
Plafond : 
>= 8 km
>= 3000ft
5 à 8 km
1000 à 3000 ft
1500m à 5 km
500 à 1000 ft
800 à 1500m
200 à 500 ft
< 800m
< 200 ft
Symboles :   Orages  Brouillard  Fortes neiges  Fortes précipitations  Vent > 20 kt
SIGMETs :   Divers  Orages  Givrage  Turbulence  Onde Orograph.  Cendres Volcan.






- Altitude de l'aérodrome : 464 ft
- Code IATA : EVX


LFOE - Evreux

DERNIER METAR :
  • 261530Z AUTO 28016KT CAVOK 07/M00 Q1010 TEMPO 28020G35KT 4000 SHRA BKN015 BKN020CB

METARs EXPIRÉS :
  • 261500Z AUTO 29012KT 9999 FEW031 SCT056 07/01 Q1010 TEMPO 28020G35KT 4000 SHRA BKN015 BKN020CB
  • 261430Z AUTO 29017G32KT 9999 -RA FEW013/// SCT033/// BKN082/// ///CB 06/00 Q1010 BECMG 26012KT SCT020 BKN040
  • 261400Z AUTO 28015KT 9999 SCT028/// BKN036/// BKN047/// ///CB 07/02 Q1009 TEMPO 28020G35KT 4000 SHRAGS BECMG SCT020 BKN040
  • 261330Z AUTO 28012KT 9999 SCT026/// BKN033/// BKN046/// ///TCU 08/04 Q1009 TEMPO 28020G35KT 4000 SHRAGS BKN010 BKN020CB
  • 261300Z AUTO 28014KT 250V320 9999 FEW020/// SCT030/// BKN044/// ///TCU 06/02 Q1009 TEMPO 28020G35KT 4000 SHRAGS BKN010 BKN020CB

TAF TAF LFOE
Valide du 26 à 15h jusqu'au 27 à 15h UTC


261400Z 2615/2715 28012KT 9999 SCT020 BKN040
TEMPO 2615/2618 28020G35KT 4000 SHRA BKN015 BKN020CB
PROB30
TEMPO 2615/2616 4000 SHRAGS BKN010 BKN020CB
BECMG 2619/2621 25008KT
BECMG 2701/2703 19012KT 4000 -RA BKN015 BKN020
PROB30
TEMPO 2703/2707 18020G30KT 4000 -RASN
TEMPO 2707/2709 20020G35KT 2000 RA BKN010 BKN015
BECMG 2709/2711 26018G35KT 9999 NSW SCT020 BKN025
TEMPO 2711/2715 28020G45KT



MET'MAP, la Météo Aéronautique d'un coup d'oeil ! - Copyright ORBIFLY Décembre 2007 - Disclaimer

ORBIFLY MET'MAP TEAM :

Programmation & Développement : Alexandra Zaïnal
Sur une idée originale de : Baudouin d'Aumeries
Assistance à la programmation : Marc-Olivier Méhu
Soutien technique & logistique : Manuel Goepfert

Contact : metmap@orbifly.com




SOURCES & CREDITS :

   NOAA